sensor_id;sensor_type;location;lat;lon;timestamp;temperature;humidity
64111;DHT22;50401;48.188;11.566;2023-07-20T00:01:12;24.30;51.92
64111;DHT22;50401;48.188;11.566;2023-07-20T00:03:38;24.36;51.72
64111;DHT22;50401;48.188;11.566;2023-07-20T00:06:04;24.32;51.87
64111;DHT22;50401;48.188;11.566;2023-07-20T00:08:30;24.30;51.83
64111;DHT22;50401;48.188;11.566;2023-07-20T00:10:55;24.26;51.97
64111;DHT22;50401;48.188;11.566;2023-07-20T00:13:21;24.27;52.00
64111;DHT22;50401;48.188;11.566;2023-07-20T00:15:46;24.33;51.90
64111;DHT22;50401;48.188;11.566;2023-07-20T00:18:12;24.32;51.91
64111;DHT22;50401;48.188;11.566;2023-07-20T00:20:38;24.26;51.78
64111;DHT22;50401;48.188;11.566;2023-07-20T00:23:03;24.26;52.03
64111;DHT22;50401;48.188;11.566;2023-07-20T00:25:29;24.23;51.76
64111;DHT22;50401;48.188;11.566;2023-07-20T00:27:54;24.20;51.95
64111;DHT22;50401;48.188;11.566;2023-07-20T00:30:20;24.22;52.09
64111;DHT22;50401;48.188;11.566;2023-07-20T00:32:45;24.19;52.03
64111;DHT22;50401;48.188;11.566;2023-07-20T00:35:11;24.20;51.85
64111;DHT22;50401;48.188;11.566;2023-07-20T00:37:38;24.13;52.18
64111;DHT22;50401;48.188;11.566;2023-07-20T00:40:04;23.99;52.53
64111;DHT22;50401;48.188;11.566;2023-07-20T00:42:31;23.92;52.62
64111;DHT22;50401;48.188;11.566;2023-07-20T00:44:56;23.88;52.77
64111;DHT22;50401;48.188;11.566;2023-07-20T00:47:22;23.91;52.81
64111;DHT22;50401;48.188;11.566;2023-07-20T00:49:48;23.86;52.76
64111;DHT22;50401;48.188;11.566;2023-07-20T00:52:14;23.88;52.82
64111;DHT22;50401;48.188;11.566;2023-07-20T00:54:41;23.95;52.94
64111;DHT22;50401;48.188;11.566;2023-07-20T00:57:07;23.98;52.70
64111;DHT22;50401;48.188;11.566;2023-07-20T00:59:33;24.05;52.40
64111;DHT22;50401;48.188;11.566;2023-07-20T01:01:59;24.06;52.33
64111;DHT22;50401;48.188;11.566;2023-07-20T01:04:24;23.99;52.41
64111;DHT22;50401;48.188;11.566;2023-07-20T01:06:58;24.05;52.33
64111;DHT22;50401;48.188;11.566;2023-07-20T01:09:48;23.91;52.69
64111;DHT22;50401;48.188;11.566;2023-07-20T01:12:42;23.75;52.95
64111;DHT22;50401;48.188;11.566;2023-07-20T01:15:08;23.61;53.39
64111;DHT22;50401;48.188;11.566;2023-07-20T01:17:34;23.64;53.49
64111;DHT22;50401;48.188;11.566;2023-07-20T01:20:00;23.70;53.17
64111;DHT22;50401;48.188;11.566;2023-07-20T01:30:59;23.61;53.61
64111;DHT22;50401;48.188;11.566;2023-07-20T01:33:30;23.57;53.65
64111;DHT22;50401;48.188;11.566;2023-07-20T01:35:59;23.57;53.55
64111;DHT22;50401;48.188;11.566;2023-07-20T01:38:25;23.65;53.05
64111;DHT22;50401;48.188;11.566;2023-07-20T01:40:51;23.64;52.72
64111;DHT22;50401;48.188;11.566;2023-07-20T01:43:17;23.65;52.68
64111;DHT22;50401;48.188;11.566;2023-07-20T01:45:43;23.70;52.53
64111;DHT22;50401;48.188;11.566;2023-07-20T01:48:08;23.71;52.00
64111;DHT22;50401;48.188;11.566;2023-07-20T01:50:34;23.74;51.55
64111;DHT22;50401;48.188;11.566;2023-07-20T01:53:00;23.68;51.41
64111;DHT22;50401;48.188;11.566;2023-07-20T01:55:26;23.71;51.12
64111;DHT22;50401;48.188;11.566;2023-07-20T01:57:51;23.63;51.47
64111;DHT22;50401;48.188;11.566;2023-07-20T02:00:17;23.68;51.38
64111;DHT22;50401;48.188;11.566;2023-07-20T02:02:44;23.70;51.43
64111;DHT22;50401;48.188;11.566;2023-07-20T02:05:09;23.73;51.58
64111;DHT22;50401;48.188;11.566;2023-07-20T02:07:35;23.68;51.48
64111;DHT22;50401;48.188;11.566;2023-07-20T02:10:00;23.73;51.49
64111;DHT22;50401;48.188;11.566;2023-07-20T02:12:25;23.68;51.86
64111;DHT22;50401;48.188;11.566;2023-07-20T02:14:51;23.71;51.81
64111;DHT22;50401;48.188;11.566;2023-07-20T02:17:17;23.73;51.63
64111;DHT22;50401;48.188;11.566;2023-07-20T02:19:42;23.75;51.69
64111;DHT22;50401;48.188;11.566;2023-07-20T02:22:07;23.74;51.84
64111;DHT22;50401;48.188;11.566;2023-07-20T02:24:33;23.63;52.26
64111;DHT22;50401;48.188;11.566;2023-07-20T02:26:59;23.64;52.57
64111;DHT22;50401;48.188;11.566;2023-07-20T02:29:24;23.63;52.66
64111;DHT22;50401;48.188;11.566;2023-07-20T02:31:50;23.58;53.15
64111;DHT22;50401;48.188;11.566;2023-07-20T02:34:15;23.63;53.16
64111;DHT22;50401;48.188;11.566;2023-07-20T02:36:41;23.65;53.19
64111;DHT22;50401;48.188;11.566;2023-07-20T02:39:08;23.65;52.63
64111;DHT22;50401;48.188;11.566;2023-07-20T02:41:33;23.64;52.92
64111;DHT22;50401;48.188;11.566;2023-07-20T02:43:59;23.68;52.88
64111;DHT22;50401;48.188;11.566;2023-07-20T02:46:25;23.77;52.64
64111;DHT22;50401;48.188;11.566;2023-07-20T02:48:50;23.78;52.31
64111;DHT22;50401;48.188;11.566;2023-07-20T02:51:16;23.74;52.40
64111;DHT22;50401;48.188;11.566;2023-07-20T02:53:41;23.71;52.57
64111;DHT22;50401;48.188;11.566;2023-07-20T02:56:07;23.67;52.49
64111;DHT22;50401;48.188;11.566;2023-07-20T02:58:34;23.49;52.74
64111;DHT22;50401;48.188;11.566;2023-07-20T03:01:02;23.47;53.05
64111;DHT22;50401;48.188;11.566;2023-07-20T03:03:27;23.45;53.26
64111;DHT22;50401;48.188;11.566;2023-07-20T03:05:53;23.39;53.37
64111;DHT22;50401;48.188;11.566;2023-07-20T03:08:20;23.40;53.29
64111;DHT22;50401;48.188;11.566;2023-07-20T03:10:45;23.43;52.89
64111;DHT22;50401;48.188;11.566;2023-07-20T03:13:10;23.39;53.05
64111;DHT22;50401;48.188;11.566;2023-07-20T03:15:36;23.33;53.23
64111;DHT22;50401;48.188;11.566;2023-07-20T03:18:01;23.33;53.03
64111;DHT22;50401;48.188;11.566;2023-07-20T03:20:28;23.39;52.77
64111;DHT22;50401;48.188;11.566;2023-07-20T03:22:53;23.30;53.04
64111;DHT22;50401;48.188;11.566;2023-07-20T03:25:19;23.27;53.16
64111;DHT22;50401;48.188;11.566;2023-07-20T03:27:44;23.26;53.35
64111;DHT22;50401;48.188;11.566;2023-07-20T03:30:10;23.24;53.26
64111;DHT22;50401;48.188;11.566;2023-07-20T03:32:36;23.24;53.14
64111;DHT22;50401;48.188;11.566;2023-07-20T03:35:02;23.24;52.71
64111;DHT22;50401;48.188;11.566;2023-07-20T03:37:27;23.26;52.56
64111;DHT22;50401;48.188;11.566;2023-07-20T03:39:53;23.33;52.07
64111;DHT22;50401;48.188;11.566;2023-07-20T03:42:18;23.27;51.80
64111;DHT22;50401;48.188;11.566;2023-07-20T03:44:43;23.32;51.97
64111;DHT22;50401;48.188;11.566;2023-07-20T03:47:09;23.43;51.51
64111;DHT22;50401;48.188;11.566;2023-07-20T03:49:34;23.42;51.39
64111;DHT22;50401;48.188;11.566;2023-07-20T03:52:00;23.38;51.29
64111;DHT22;50401;48.188;11.566;2023-07-20T03:54:27;23.34;51.44
64111;DHT22;50401;48.188;11.566;2023-07-20T03:56:52;23.32;51.57
64111;DHT22;50401;48.188;11.566;2023-07-20T03:59:18;23.23;51.19
64111;DHT22;50401;48.188;11.566;2023-07-20T04:01:43;23.19;51.43
64111;DHT22;50401;48.188;11.566;2023-07-20T04:04:08;23.15;51.44
64111;DHT22;50401;48.188;11.566;2023-07-20T04:06:34;23.06;51.69
64111;DHT22;50401;48.188;11.566;2023-07-20T04:08:59;22.97;51.34
64111;DHT22;50401;48.188;11.566;2023-07-20T04:11:25;22.95;52.31
64111;DHT22;50401;48.188;11.566;2023-07-20T04:13:50;22.92;53.86
64111;DHT22;50401;48.188;11.566;2023-07-20T04:16:15;22.83;55.39
64111;DHT22;50401;48.188;11.566;2023-07-20T04:18:41;22.72;55.78
64111;DHT22;50401;48.188;11.566;2023-07-20T04:21:08;22.54;56.53
64111;DHT22;50401;48.188;11.566;2023-07-20T04:23:34;22.61;56.60
64111;DHT22;50401;48.188;11.566;2023-07-20T04:26:00;22.64;56.70
64111;DHT22;50401;48.188;11.566;2023-07-20T04:28:26;22.52;56.61
64111;DHT22;50401;48.188;11.566;2023-07-20T04:30:52;22.60;56.65
64111;DHT22;50401;48.188;11.566;2023-07-20T04:33:18;22.64;56.59
64111;DHT22;50401;48.188;11.566;2023-07-20T04:35:51;22.67;56.62
64111;DHT22;50401;48.188;11.566;2023-07-20T04:38:18;22.61;56.21
64111;DHT22;50401;48.188;11.566;2023-07-20T04:40:48;22.64;55.95
64111;DHT22;50401;48.188;11.566;2023-07-20T04:43:16;22.65;56.10
64111;DHT22;50401;48.188;11.566;2023-07-20T04:45:42;22.63;56.33
64111;DHT22;50401;48.188;11.566;2023-07-20T04:48:10;22.63;56.46
64111;DHT22;50401;48.188;11.566;2023-07-20T04:50:37;22.70;56.30
64111;DHT22;50401;48.188;11.566;2023-07-20T04:53:02;22.77;56.43
64111;DHT22;50401;48.188;11.566;2023-07-20T04:55:28;22.81;56.29
64111;DHT22;50401;48.188;11.566;2023-07-20T04:57:53;22.80;56.47
64111;DHT22;50401;48.188;11.566;2023-07-20T05:00:19;22.78;56.31
64111;DHT22;50401;48.188;11.566;2023-07-20T05:02:45;22.75;56.23
64111;DHT22;50401;48.188;11.566;2023-07-20T05:05:12;22.74;56.06
64111;DHT22;50401;48.188;11.566;2023-07-20T05:07:38;22.77;55.98
64111;DHT22;50401;48.188;11.566;2023-07-20T05:10:04;22.81;56.04
64111;DHT22;50401;48.188;11.566;2023-07-20T05:12:29;22.83;56.02
64111;DHT22;50401;48.188;11.566;2023-07-20T05:14:55;22.77;56.34
64111;DHT22;50401;48.188;11.566;2023-07-20T05:17:20;22.83;56.14
64111;DHT22;50401;48.188;11.566;2023-07-20T05:19:45;22.94;55.87
64111;DHT22;50401;48.188;11.566;2023-07-20T05:22:13;22.86;55.33
64111;DHT22;50401;48.188;11.566;2023-07-20T05:24:38;22.81;55.04
64111;DHT22;50401;48.188;11.566;2023-07-20T05:27:04;22.46;55.56
64111;DHT22;50401;48.188;11.566;2023-07-20T05:29:29;22.61;55.04
64111;DHT22;50401;48.188;11.566;2023-07-20T05:31:55;22.71;54.25
64111;DHT22;50401;48.188;11.566;2023-07-20T05:34:20;22.78;53.50
64111;DHT22;50401;48.188;11.566;2023-07-20T05:37:11;22.84;52.45
64111;DHT22;50401;48.188;11.566;2023-07-20T05:39:36;22.95;51.72
64111;DHT22;50401;48.188;11.566;2023-07-20T05:42:01;22.99;51.93
64111;DHT22;50401;48.188;11.566;2023-07-20T05:44:27;23.09;51.43
64111;DHT22;50401;48.188;11.566;2023-07-20T05:46:52;23.19;49.64
64111;DHT22;50401;48.188;11.566;2023-07-20T05:49:17;23.26;49.25
64111;DHT22;50401;48.188;11.566;2023-07-20T05:51:43;23.33;49.04
64111;DHT22;50401;48.188;11.566;2023-07-20T05:54:08;23.20;48.80
64111;DHT22;50401;48.188;11.566;2023-07-20T05:56:34;23.24;48.83
64111;DHT22;50401;48.188;11.566;2023-07-20T05:58:59;23.33;48.59
64111;DHT22;50401;48.188;11.566;2023-07-20T06:01:25;23.26;48.17
64111;DHT22;50401;48.188;11.566;2023-07-20T06:03:52;23.16;48.65
64111;DHT22;50401;48.188;11.566;2023-07-20T06:06:18;23.63;47.99
64111;DHT22;50401;48.188;11.566;2023-07-20T06:08:44;24.37;46.49
64111;DHT22;50401;48.188;11.566;2023-07-20T06:11:10;24.44;46.47
64111;DHT22;50401;48.188;11.566;2023-07-20T06:13:35;24.81;45.87
64111;DHT22;50401;48.188;11.566;2023-07-20T06:16:01;25.28;45.15
64111;DHT22;50401;48.188;11.566;2023-07-20T06:18:26;25.76;43.53
64111;DHT22;50401;48.188;11.566;2023-07-20T06:20:52;25.57;44.45
64111;DHT22;50401;48.188;11.566;2023-07-20T06:23:20;26.54;42.61
64111;DHT22;50401;48.188;11.566;2023-07-20T06:25:46;26.52;42.52
64111;DHT22;50401;48.188;11.566;2023-07-20T06:28:12;26.36;43.01
64111;DHT22;50401;48.188;11.566;2023-07-20T06:30:37;27.24;40.97
64111;DHT22;50401;48.188;11.566;2023-07-20T06:33:03;27.52;40.42
64111;DHT22;50401;48.188;11.566;2023-07-20T06:35:28;27.30;40.77
64111;DHT22;50401;48.188;11.566;2023-07-20T06:37:54;26.59;41.98
64111;DHT22;50401;48.188;11.566;2023-07-20T06:40:19;26.10;42.72
64111;DHT22;50401;48.188;11.566;2023-07-20T06:42:45;26.59;42.28
64111;DHT22;50401;48.188;11.566;2023-07-20T06:45:10;25.71;43.78
64111;DHT22;50401;48.188;11.566;2023-07-20T06:47:39;25.57;44.15
64111;DHT22;50401;48.188;11.566;2023-07-20T06:50:06;25.92;43.86
64111;DHT22;50401;48.188;11.566;2023-07-20T06:52:31;25.84;43.80
64111;DHT22;50401;48.188;11.566;2023-07-20T06:54:57;27.27;41.29
64111;DHT22;50401;48.188;11.566;2023-07-20T06:57:22;29.32;37.90
64111;DHT22;50401;48.188;11.566;2023-07-20T06:59:48;30.80;35.87
64111;DHT22;50401;48.188;11.566;2023-07-20T07:02:13;29.43;37.43
64111;DHT22;50401;48.188;11.566;2023-07-20T07:04:39;29.86;36.56
64111;DHT22;50401;48.188;11.566;2023-07-20T07:07:04;30.10;36.26
64111;DHT22;50401;48.188;11.566;2023-07-20T07:09:30;29.91;36.41
64111;DHT22;50401;48.188;11.566;2023-07-20T07:11:55;29.80;36.46
64111;DHT22;50401;48.188;11.566;2023-07-20T07:14:21;29.29;36.61
64111;DHT22;50401;48.188;11.566;2023-07-20T07:16:47;29.45;36.65
64111;DHT22;50401;48.188;11.566;2023-07-20T07:19:13;29.26;36.64
64111;DHT22;50401;48.188;11.566;2023-07-20T07:21:38;28.80;37.40
64111;DHT22;50401;48.188;11.566;2023-07-20T07:24:04;28.51;38.11
64111;DHT22;50401;48.188;11.566;2023-07-20T07:26:32;28.11;38.88
64111;DHT22;50401;48.188;11.566;2023-07-20T07:28:58;27.69;38.99
64111;DHT22;50401;48.188;11.566;2023-07-20T07:31:25;27.48;39.53
64111;DHT22;50401;48.188;11.566;2023-07-20T07:33:51;27.31;39.02
64111;DHT22;50401;48.188;11.566;2023-07-20T07:36:16;27.38;39.27
64111;DHT22;50401;48.188;11.566;2023-07-20T07:38:42;27.33;39.08
64111;DHT22;50401;48.188;11.566;2023-07-20T07:41:08;26.90;39.93
64111;DHT22;50401;48.188;11.566;2023-07-20T07:43:36;26.82;39.48
64111;DHT22;50401;48.188;11.566;2023-07-20T07:46:10;27.37;38.92
64111;DHT22;50401;48.188;11.566;2023-07-20T07:48:35;26.85;39.51
64111;DHT22;50401;48.188;11.566;2023-07-20T07:51:01;26.95;39.68
64111;DHT22;50401;48.188;11.566;2023-07-20T07:53:26;27.17;39.04
64111;DHT22;50401;48.188;11.566;2023-07-20T07:55:52;26.89;38.41
64111;DHT22;50401;48.188;11.566;2023-07-20T07:58:18;27.35;38.50
64111;DHT22;50401;48.188;11.566;2023-07-20T08:00:43;27.42;38.75
64111;DHT22;50401;48.188;11.566;2023-07-20T08:03:09;27.61;38.51
64111;DHT22;50401;48.188;11.566;2023-07-20T08:05:35;27.76;38.56
64111;DHT22;50401;48.188;11.566;2023-07-20T08:08:04;28.01;38.38
64111;DHT22;50401;48.188;11.566;2023-07-20T08:10:30;28.34;38.10
64111;DHT22;50401;48.188;11.566;2023-07-20T08:12:56;28.45;37.67
64111;DHT22;50401;48.188;11.566;2023-07-20T08:15:21;28.48;36.98
64111;DHT22;50401;48.188;11.566;2023-07-20T08:17:47;28.89;36.36
64111;DHT22;50401;48.188;11.566;2023-07-20T08:20:13;29.42;35.47
64111;DHT22;50401;48.188;11.566;2023-07-20T08:22:39;29.19;35.86
64111;DHT22;50401;48.188;11.566;2023-07-20T08:25:06;29.12;35.93
64111;DHT22;50401;48.188;11.566;2023-07-20T08:27:32;28.53;36.53
64111;DHT22;50401;48.188;11.566;2023-07-20T08:29:57;27.96;37.59
64111;DHT22;50401;48.188;11.566;2023-07-20T08:32:22;27.94;37.52
64111;DHT22;50401;48.188;11.566;2023-07-20T08:34:48;27.99;37.29
64111;DHT22;50401;48.188;11.566;2023-07-20T08:37:13;28.14;37.23
64111;DHT22;50401;48.188;11.566;2023-07-20T08:39:39;28.25;37.38
64111;DHT22;50401;48.188;11.566;2023-07-20T08:42:05;27.92;37.46
64111;DHT22;50401;48.188;11.566;2023-07-20T08:44:35;27.66;37.91
64111;DHT22;50401;48.188;11.566;2023-07-20T08:47:02;27.41;38.21
64111;DHT22;50401;48.188;11.566;2023-07-20T08:49:33;27.72;37.86
64111;DHT22;50401;48.188;11.566;2023-07-20T08:51:59;28.52;36.36
64111;DHT22;50401;48.188;11.566;2023-07-20T08:54:29;29.41;35.01
64111;DHT22;50401;48.188;11.566;2023-07-20T08:56:57;29.90;34.69
64111;DHT22;50401;48.188;11.566;2023-07-20T08:59:23;29.34;35.22
64111;DHT22;50401;48.188;11.566;2023-07-20T09:01:51;29.06;35.47
64111;DHT22;50401;48.188;11.566;2023-07-20T09:04:17;28.94;35.38
64111;DHT22;50401;48.188;11.566;2023-07-20T09:06:43;29.12;34.77
64111;DHT22;50401;48.188;11.566;2023-07-20T09:09:10;30.04;33.77
64111;DHT22;50401;48.188;11.566;2023-07-20T09:11:36;29.63;34.06
64111;DHT22;50401;48.188;11.566;2023-07-20T09:14:03;29.87;33.32
64111;DHT22;50401;48.188;11.566;2023-07-20T09:16:29;29.91;33.96
64111;DHT22;50401;48.188;11.566;2023-07-20T09:18:57;29.90;34.05
64111;DHT22;50401;48.188;11.566;2023-07-20T09:21:23;29.97;33.70
64111;DHT22;50401;48.188;11.566;2023-07-20T09:23:48;29.63;33.88
64111;DHT22;50401;48.188;11.566;2023-07-20T09:26:18;29.39;34.37
64111;DHT22;50401;48.188;11.566;2023-07-20T09:28:48;30.24;33.00
64111;DHT22;50401;48.188;11.566;2023-07-20T09:31:17;30.55;32.87
64111;DHT22;50401;48.188;11.566;2023-07-20T09:33:43;30.14;33.70
64111;DHT22;50401;48.188;11.566;2023-07-20T09:36:09;30.22;33.06
64111;DHT22;50401;48.188;11.566;2023-07-20T09:38:37;30.71;32.36
64111;DHT22;50401;48.188;11.566;2023-07-20T09:41:05;30.42;32.84
64111;DHT22;50401;48.188;11.566;2023-07-20T09:43:31;30.80;32.23
64111;DHT22;50401;48.188;11.566;2023-07-20T09:45:58;30.99;31.99
64111;DHT22;50401;48.188;11.566;2023-07-20T09:48:24;31.18;31.61
64111;DHT22;50401;48.188;11.566;2023-07-20T09:50:50;30.87;32.09
64111;DHT22;50401;48.188;11.566;2023-07-20T09:53:17;30.74;32.00
64111;DHT22;50401;48.188;11.566;2023-07-20T09:55:46;30.33;33.10
64111;DHT22;50401;48.188;11.566;2023-07-20T09:58:16;29.84;33.52
64111;DHT22;50401;48.188;11.566;2023-07-20T10:00:43;29.83;33.54
64111;DHT22;50401;48.188;11.566;2023-07-20T10:03:14;29.42;35.10
64111;DHT22;50401;48.188;11.566;2023-07-20T10:05:43;29.66;35.31
64111;DHT22;50401;48.188;11.566;2023-07-20T10:08:12;29.91;34.77
64111;DHT22;50401;48.188;11.566;2023-07-20T10:10:41;29.56;35.25
64111;DHT22;50401;48.188;11.566;2023-07-20T10:13:15;29.80;34.93
64111;DHT22;50401;48.188;11.566;2023-07-20T10:15:54;29.91;34.29
64111;DHT22;50401;48.188;11.566;2023-07-20T10:18:28;29.41;35.54
64111;DHT22;50401;48.188;11.566;2023-07-20T10:20:59;29.22;35.58
64111;DHT22;50401;48.188;11.566;2023-07-20T10:23:26;29.51;35.30
64111;DHT22;50401;48.188;11.566;2023-07-20T10:25:55;29.19;35.71
64111;DHT22;50401;48.188;11.566;2023-07-20T10:28:22;28.38;36.03
64111;DHT22;50401;48.188;11.566;2023-07-20T10:30:49;27.96;36.87
64111;DHT22;50401;48.188;11.566;2023-07-20T10:33:16;28.15;36.69
64111;DHT22;50401;48.188;11.566;2023-07-20T10:35:55;27.94;37.14
64111;DHT22;50401;48.188;11.566;2023-07-20T10:41:35;27.54;37.95
64111;DHT22;50401;48.188;11.566;2023-07-20T10:44:06;27.61;38.34
64111;DHT22;50401;48.188;11.566;2023-07-20T10:49:08;28.03;37.59
64111;DHT22;50401;48.188;11.566;2023-07-20T10:51:42;27.99;38.07
64111;DHT22;50401;48.188;11.566;2023-07-20T10:56:41;28.08;37.65
64111;DHT22;50401;48.188;11.566;2023-07-20T10:59:35;28.04;37.56
64111;DHT22;50401;48.188;11.566;2023-07-20T11:02:05;28.03;37.92
64111;DHT22;50401;48.188;11.566;2023-07-20T11:04:38;28.04;37.76
64111;DHT22;50401;48.188;11.566;2023-07-20T11:07:04;28.06;37.74
64111;DHT22;50401;48.188;11.566;2023-07-20T11:09:34;27.99;37.84
64111;DHT22;50401;48.188;11.566;2023-07-20T11:12:29;28.03;38.13
64111;DHT22;50401;48.188;11.566;2023-07-20T11:14:56;28.08;37.85
64111;DHT22;50401;48.188;11.566;2023-07-20T11:17:29;28.21;38.56
64111;DHT22;50401;48.188;11.566;2023-07-20T11:19:59;27.97;38.25
64111;DHT22;50401;48.188;11.566;2023-07-20T11:22:30;28.06;37.92
64111;DHT22;50401;48.188;11.566;2023-07-20T11:24:56;27.79;38.38
64111;DHT22;50401;48.188;11.566;2023-07-20T11:27:22;28.00;38.24
64111;DHT22;50401;48.188;11.566;2023-07-20T11:29:48;27.93;37.82
64111;DHT22;50401;48.188;11.566;2023-07-20T11:32:20;27.69;37.77
64111;DHT22;50401;48.188;11.566;2023-07-20T11:34:47;27.63;38.77
64111;DHT22;50401;48.188;11.566;2023-07-20T11:37:13;27.78;38.81
64111;DHT22;50401;48.188;11.566;2023-07-20T11:39:38;27.80;38.58
64111;DHT22;50401;48.188;11.566;2023-07-20T11:42:05;27.78;38.18
64111;DHT22;50401;48.188;11.566;2023-07-20T11:44:32;27.74;38.39
64111;DHT22;50401;48.188;11.566;2023-07-20T11:47:12;27.83;38.11
64111;DHT22;50401;48.188;11.566;2023-07-20T11:49:39;27.83;38.27
64111;DHT22;50401;48.188;11.566;2023-07-20T11:52:09;27.96;39.61
64111;DHT22;50401;48.188;11.566;2023-07-20T11:54:35;28.08;39.34
64111;DHT22;50401;48.188;11.566;2023-07-20T11:57:02;28.11;39.60
64111;DHT22;50401;48.188;11.566;2023-07-20T11:59:28;28.13;39.92
64111;DHT22;50401;48.188;11.566;2023-07-20T12:01:53;28.15;39.25
64111;DHT22;50401;48.188;11.566;2023-07-20T12:04:19;28.03;38.91
64111;DHT22;50401;48.188;11.566;2023-07-20T12:06:45;28.00;38.80
64111;DHT22;50401;48.188;11.566;2023-07-20T12:09:14;28.20;39.10
64111;DHT22;50401;48.188;11.566;2023-07-20T12:11:43;28.17;39.17
64111;DHT22;50401;48.188;11.566;2023-07-20T12:14:09;28.31;38.53
64111;DHT22;50401;48.188;11.566;2023-07-20T12:16:35;27.89;38.22
64111;DHT22;50401;48.188;11.566;2023-07-20T12:19:06;28.07;38.69
64111;DHT22;50401;48.188;11.566;2023-07-20T12:21:34;27.90;38.44
64111;DHT22;50401;48.188;11.566;2023-07-20T12:24:00;27.80;39.55
64111;DHT22;50401;48.188;11.566;2023-07-20T12:26:26;27.82;39.09
64111;DHT22;50401;48.188;11.566;2023-07-20T12:28:52;27.88;38.46
64111;DHT22;50401;48.188;11.566;2023-07-20T12:31:17;27.85;38.76
64111;DHT22;50401;48.188;11.566;2023-07-20T12:33:43;27.92;38.59
64111;DHT22;50401;48.188;11.566;2023-07-20T12:36:09;27.65;38.97
64111;DHT22;50401;48.188;11.566;2023-07-20T12:38:35;27.54;39.35
64111;DHT22;50401;48.188;11.566;2023-07-20T12:41:01;27.66;39.10
64111;DHT22;50401;48.188;11.566;2023-07-20T12:43:27;27.66;39.13
64111;DHT22;50401;48.188;11.566;2023-07-20T12:45:53;27.56;39.06
64111;DHT22;50401;48.188;11.566;2023-07-20T12:48:18;27.51;39.32
64111;DHT22;50401;48.188;11.566;2023-07-20T12:50:44;27.49;38.94
64111;DHT22;50401;48.188;11.566;2023-07-20T12:53:09;27.45;39.35
64111;DHT22;50401;48.188;11.566;2023-07-20T12:55:35;27.42;39.53
64111;DHT22;50401;48.188;11.566;2023-07-20T12:58:00;27.13;39.74
64111;DHT22;50401;48.188;11.566;2023-07-20T13:00:26;27.23;39.87
64111;DHT22;50401;48.188;11.566;2023-07-20T13:02:51;27.15;39.80
64111;DHT22;50401;48.188;11.566;2023-07-20T13:05:16;27.27;39.63
64111;DHT22;50401;48.188;11.566;2023-07-20T13:07:42;27.51;39.32
64111;DHT22;50401;48.188;11.566;2023-07-20T13:10:09;27.52;39.09
64111;DHT22;50401;48.188;11.566;2023-07-20T13:12:35;27.61;38.99
64111;DHT22;50401;48.188;11.566;2023-07-20T13:15:02;27.38;38.81
64111;DHT22;50401;48.188;11.566;2023-07-20T13:17:32;27.31;39.46
64111;DHT22;50401;48.188;11.566;2023-07-20T13:19:58;27.15;39.70
64111;DHT22;50401;48.188;11.566;2023-07-20T13:22:24;27.21;39.88
64111;DHT22;50401;48.188;11.566;2023-07-20T13:24:49;27.34;39.57
64111;DHT22;50401;48.188;11.566;2023-07-20T13:27:19;27.51;39.19
64111;DHT22;50401;48.188;11.566;2023-07-20T13:29:45;27.35;39.14
64111;DHT22;50401;48.188;11.566;2023-07-20T13:32:13;27.51;38.87
64111;DHT22;50401;48.188;11.566;2023-07-20T13:34:41;27.52;38.95
64111;DHT22;50401;48.188;11.566;2023-07-20T13:37:07;27.27;39.33
64111;DHT22;50401;48.188;11.566;2023-07-20T13:39:33;27.48;39.42
64111;DHT22;50401;48.188;11.566;2023-07-20T13:41:58;27.59;39.14
64111;DHT22;50401;48.188;11.566;2023-07-20T13:44:24;27.67;39.49
64111;DHT22;50401;48.188;11.566;2023-07-20T13:46:49;27.63;39.11
64111;DHT22;50401;48.188;11.566;2023-07-20T13:49:15;27.72;38.79
64111;DHT22;50401;48.188;11.566;2023-07-20T13:51:41;27.52;38.85
64111;DHT22;50401;48.188;11.566;2023-07-20T13:54:08;27.61;38.18
64111;DHT22;50401;48.188;11.566;2023-07-20T13:56:33;27.33;38.48
64111;DHT22;50401;48.188;11.566;2023-07-20T13:58:58;27.34;39.79
64111;DHT22;50401;48.188;11.566;2023-07-20T14:01:24;27.51;39.92
64111;DHT22;50401;48.188;11.566;2023-07-20T14:03:50;27.62;38.86
64111;DHT22;50401;48.188;11.566;2023-07-20T14:06:16;27.78;39.95
64111;DHT22;50401;48.188;11.566;2023-07-20T14:08:42;27.82;38.35
64111;DHT22;50401;48.188;11.566;2023-07-20T14:11:14;27.97;39.57
64111;DHT22;50401;48.188;11.566;2023-07-20T14:13:40;27.96;38.91
64111;DHT22;50401;48.188;11.566;2023-07-20T14:16:05;27.85;37.90
64111;DHT22;50401;48.188;11.566;2023-07-20T14:18:31;27.63;38.28
64111;DHT22;50401;48.188;11.566;2023-07-20T14:20:56;27.56;38.80
64111;DHT22;50401;48.188;11.566;2023-07-20T14:23:22;27.51;38.88
64111;DHT22;50401;48.188;11.566;2023-07-20T14:25:48;27.37;39.10
64111;DHT22;50401;48.188;11.566;2023-07-20T14:28:14;27.38;39.23
64111;DHT22;50401;48.188;11.566;2023-07-20T14:30:40;27.33;39.58
64111;DHT22;50401;48.188;11.566;2023-07-20T14:33:06;27.20;40.41
64111;DHT22;50401;48.188;11.566;2023-07-20T14:35:31;27.35;40.06
64111;DHT22;50401;48.188;11.566;2023-07-20T14:38:00;27.42;39.16
64111;DHT22;50401;48.188;11.566;2023-07-20T14:40:25;27.41;39.19
64111;DHT22;50401;48.188;11.566;2023-07-20T14:42:51;27.58;40.82
64111;DHT22;50401;48.188;11.566;2023-07-20T14:45:17;27.54;38.78
64111;DHT22;50401;48.188;11.566;2023-07-20T14:47:43;27.24;39.26
64111;DHT22;50401;48.188;11.566;2023-07-20T14:50:09;27.08;38.98
64111;DHT22;50401;48.188;11.566;2023-07-20T14:52:40;26.75;39.63
64111;DHT22;50401;48.188;11.566;2023-07-20T14:55:06;26.99;41.09
64111;DHT22;50401;48.188;11.566;2023-07-20T14:57:31;27.23;40.62
64111;DHT22;50401;48.188;11.566;2023-07-20T14:59:57;27.38;39.75
64111;DHT22;50401;48.188;11.566;2023-07-20T15:02:22;27.39;38.71
64111;DHT22;50401;48.188;11.566;2023-07-20T15:04:51;26.93;38.69
64111;DHT22;50401;48.188;11.566;2023-07-20T15:07:20;27.10;39.19
64111;DHT22;50401;48.188;11.566;2023-07-20T15:09:49;27.18;39.22
64111;DHT22;50401;48.188;11.566;2023-07-20T15:12:14;27.08;38.80
64111;DHT22;50401;48.188;11.566;2023-07-20T15:14:41;27.08;39.70
64111;DHT22;50401;48.188;11.566;2023-07-20T15:17:10;27.04;39.31
64111;DHT22;50401;48.188;11.566;2023-07-20T15:19:36;27.06;39.18
64111;DHT22;50401;48.188;11.566;2023-07-20T15:22:04;27.14;40.07
64111;DHT22;50401;48.188;11.566;2023-07-20T15:24:44;27.27;39.67
64111;DHT22;50401;48.188;11.566;2023-07-20T15:27:11;27.28;39.75
64111;DHT22;50401;48.188;11.566;2023-07-20T15:29:37;27.27;39.18